Latest Weather Observations for Casterton

IDV60801

Issued at 11:05 pm EDT Friday 31 October 2014 (issued every 30 minutes, with the page automatically refreshed every 10 minutes)

About weather observations | Map of weather stations | Latest weather observations for VIC | Other Formats
Station Details ID: 090182 Name: CASTERTON Lat: -37.58 Lon: 141.33 Height: 130.6 m
Data from the previous 72 hours. | See also: Recent months at Casterton
Date/Time
EDT
Temp
°C
App
Temp
°C
Dew
Point
Rel
Hum
%
Delta-T
°C
Wind Press
QNH
hPa
Press
MSL
hPa
Rain
since 9 am
mm
Dir
 
Spd
km/h
Gust
km/h
Spd
kts
Gust
kts
31/11:00pm 14.2 10.7 13.4 95 0.4 W 24 33 13 18 1002.6 - 0.0
31/10:30pm 14.6 12.7 14.3 98 0.2 W 17 28 9 15 1003.0 - 0.0
31/10:00pm 14.8 12.3 14.2 96 0.3 W 20 28 11 15 1002.5 - 0.0
31/09:30pm 15.0 13.3 14.7 98 0.2 W 17 26 9 14 1001.0 - 0.0
31/09:05pm 15.8 11.4 14.0 89 1.0 WSW 30 48 16 26 1001.2 - 0.0
31/09:00pm 15.9 10.5 13.9 88 1.1 WSW 35 50 19 27 1001.5 1001.5 0.0
31/08:33pm 16.6 10.8 13.9 84 1.5 WSW 37 56 20 30 1000.4 - 0.0
31/08:30pm 16.7 11.3 13.8 83 1.7 WSW 35 48 19 26 1000.2 - 0.0
31/08:11pm 18.0 12.8 12.7 71 3.0 WSW 32 52 17 28 999.8 - 0.0
31/08:00pm 19.0 14.9 11.3 61 4.2 WSW 24 44 13 24 999.3 - 0.0
31/07:30pm 22.7 18.4 7.7 38 7.9 WSW 20 32 11 17 998.3 - 0.0
31/07:00pm 24.2 18.8 6.5 32 9.2 WSW 24 33 13 18 998.0 - 0.0
31/06:30pm 26.1 19.5 7.7 31 9.9 WSW 32 43 17 23 997.5 - 0.0
31/06:10pm 29.7 23.3 5.1 21 12.9 WNW 28 48 15 26 997.1 - 0.0
31/06:00pm 30.1 24.6 6.1 22 12.9 W 24 39 13 21 997.1 997.0 0.0
31/05:30pm 30.7 24.7 5.2 20 13.4 WNW 26 43 14 23 997.4 - 0.0
31/05:07pm 31.0 24.6 5.4 20 13.6 WNW 28 46 15 25 997.4 - 0.0
31/05:00pm 31.5 26.1 6.5 21 13.5 WNW 24 41 13 22 997.5 - 0.0
31/04:37pm 31.2 25.0 6.3 21 13.4 WNW 28 50 15 27 997.8 - 0.0
31/04:30pm 31.2 26.3 7.0 22 13.2 WNW 22 48 12 26 998.0 - 0.0
31/04:00pm 31.3 24.9 7.1 22 13.2 NW 30 48 16 26 998.5 - 0.0
31/03:59pm 31.1 24.5 6.2 21 13.4 NW 30 48 16 26 998.5 - 0.0
31/03:30pm 30.5 25.3 8.8 26 12.1 NNW 26 43 14 23 999.4 - 0.0
31/03:00pm 29.4 24.2 7.3 25 12.0 NNW 24 43 13 23 1000.2 1000.2 0.0
31/02:37pm 28.4 21.4 5.9 24 11.8 NNW 32 50 17 27 1000.7 - 0.0
31/02:30pm 28.4 21.1 5.3 23 12.0 NNW 33 50 18 27 1000.8 - 0.0
31/02:00pm 29.5 22.5 6.8 24 12.2 N 33 52 18 28 1001.3 - 0.0
31/01:30pm 27.1 20.0 6.5 27 10.9 N 33 48 18 26 1001.9 - 0.0
31/01:13pm 28.0 22.2 7.8 28 11.0 N 28 48 15 26 1002.1 - 0.0
31/01:00pm 27.6 22.9 9.4 32 10.1 N 24 35 13 19 1002.4 - 0.0
31/12:30pm 26.8 19.8 8.3 31 10.1 N 35 54 19 29 1002.9 - 0.0
31/12:08pm 26.5 20.6 7.5 30 10.2 N 28 46 15 25 1003.4 - 0.0
31/12:00pm 26.2 20.8 8.2 32 9.8 N 26 37 14 20 1003.6 1003.6 0.0
31/11:30am 25.3 20.4 10.0 38 8.5 N 26 39 14 21 1004.2 - 0.0
31/11:00am 22.9 17.3 8.6 40 7.6 N 28 39 15 21 1004.6 - 0.0
31/10:30am 22.2 18.2 10.4 47 6.5 NNE 22 32 12 17 1005.0 - 0.0
31/10:00am 19.9 15.9 10.6 55 5.1 N 22 32 12 17 1005.7 - 0.0
31/09:30am 19.1 16.1 10.6 58 4.6 N 17 24 9 13 1005.9 - 0.0
31/09:00am 16.2 14.7 12.0 76 2.3 NNE 11 17 6 9 1006.2 1006.2 0.0
31/08:30am 14.2 13.1 11.9 86 1.2 NNE 9 17 5 9 1006.6 - 0.0
31/08:00am 12.4 11.0 12.1 98 0.2 NE 11 17 6 9 1006.4 - 0.0
31/07:30am 10.5 8.5 10.2 98 0.2 NE 11 15 6 8 1006.8 - 0.0
31/07:00am 9.5 7.7 9.4 99 0.0 NE 9 13 5 7 1007.4 - 0.0
31/06:30am 9.2 7.3 9.1 99 0.0 NE 9 9 5 5 1007.7 - 0.0
31/06:00am 9.4 7.9 9.3 99 0.0 NE 7 11 4 6 1007.8 1007.8 0.0
31/05:30am 9.1 7.6 9.0 99 0.0 NE 7 9 4 5 1007.8 - 0.0
31/05:00am 8.8 6.8 8.7 99 0.0 ENE 9 11 5 6 1008.0 - 0.0
31/04:30am 9.0 7.1 8.9 99 0.0 NE 9 11 5 6 1008.6 - 0.0
31/04:00am 8.8 6.8 8.7 99 0.0 ENE 9 13 5 7 1009.1 - 0.0
31/03:30am 8.8 7.2 8.7 99 0.0 ENE 7 11 4 6 1009.7 - 0.0
31/03:00am 8.5 6.8 8.4 99 0.0 E 7 11 4 6 1010.1 1010.1 0.0
31/02:30am 8.0 6.4 7.9 99 0.0 E 6 11 3 6 1010.5 - 0.0
31/02:00am 8.5 6.4 8.2 98 0.1 ENE 9 13 5 7 1011.1 - 0.0
31/01:30am 8.0 5.8 7.7 98 0.1 E 9 13 5 7 1011.7 - 0.0
31/01:00am 8.1 6.3 7.8 98 0.1 E 7 9 4 5 1012.4 - 0.0
31/12:30am 8.2 6.6 7.9 98 0.1 E 6 7 3 4 1012.6 - 0.0
31/12:00am 8.8 8.5 8.5 98 0.1 CALM 0 0 0 0 1012.8 1012.8 0.0
 
Date/Time
EDT
Temp
°C
App
Temp
°C
Dew
Point
Rel
Hum
%
Delta-T
°C
Wind Press
QNH
hPa
Press
MSL
hPa
Rain
since 9 am
mm
Dir
 
Spd
km/h
Gust
km/h
Spd
kts
Gust
kts
30/11:30pm 9.3 7.8 9.0 98 0.1 E 7 9 4 5 1013.2 - 0.0
30/11:00pm 10.1 8.7 9.5 96 0.3 E 7 9 4 5 1013.8 - 0.0
30/10:30pm 10.6 8.5 9.8 95 0.4 S 11 15 6 8 1014.2 - 0.0
30/10:00pm 10.7 9.0 9.8 94 0.5 S 9 13 5 7 1014.1 - 0.0
30/09:30pm 11.8 9.4 10.2 90 0.8 S 13 19 7 10 1013.6 - 0.0
30/09:00pm 12.8 10.1 10.3 85 1.3 S 15 24 8 13 1013.2 1013.2 0.0
30/08:30pm 14.2 11.5 10.2 77 2.1 SSW 15 19 8 10 1013.1 - 0.0
30/08:00pm 16.2 13.9 10.3 68 3.1 SW 13 22 7 12 1012.7 - 0.0
30/07:30pm 17.9 15.6 10.3 61 4.1 SW 13 15 7 8 1012.4 - 0.0
30/07:00pm 19.3 17.4 10.6 57 4.7 SW 11 17 6 9 1012.1 - 0.0
30/06:30pm 19.8 18.0 11.0 57 4.8 SSW 11 17 6 9 1012.0 - 0.0
30/06:00pm 20.8 19.0 10.9 53 5.5 W 11 15 6 8 1012.1 1012.1 0.0
30/05:30pm 20.9 17.4 10.1 50 5.9 SW 19 22 10 12 1012.5 - 0.0
30/05:00pm 21.2 19.0 10.7 51 5.8 WNW 13 19 7 10 1012.7 - 0.0
30/04:30pm 21.3 19.1 10.8 51 5.8 WNW 13 22 7 12 1012.9 - 0.0
30/04:00pm 20.6 18.0 10.7 53 5.4 W 15 26 8 14 1013.2 - 0.0
30/03:30pm 20.3 17.8 9.8 51 5.7 WSW 13 28 7 15 1013.6 - 0.0
30/03:00pm 19.7 18.2 12.0 61 4.3 WSW 11 22 6 12 1013.8 1013.8 0.0
30/02:30pm 18.8 15.9 9.8 56 4.8 WNW 15 24 8 13 1014.1 - 0.0
30/02:00pm 18.1 15.4 10.5 61 4.1 WSW 15 26 8 14 1014.5 - 0.0
30/01:30pm 19.2 16.4 11.5 61 4.3 WNW 17 24 9 13 1014.6 - 0.0
30/01:00pm 16.9 14.8 9.6 62 3.8 NW 11 19 6 10 1014.8 - 0.0
30/12:30pm 16.5 13.7 9.9 65 3.5 W 15 20 8 11 1015.3 - 0.0
30/12:00pm 15.8 14.3 10.6 71 2.8 W 9 17 5 9 1015.6 1015.6 0.0
30/11:30am 15.1 13.1 11.5 79 1.9 WNW 13 24 7 13 1015.8 - 0.0
30/11:00am 13.9 11.6 11.8 87 1.1 W 15 24 8 13 1016.0 - 0.0
30/10:30am 13.5 12.0 13.2 98 0.2 W 13 19 7 10 1016.2 - 0.0
30/10:00am 12.9 10.5 12.6 98 0.2 W 17 24 9 13 1016.1 - 0.0
30/09:30am 13.2 10.7 11.1 87 1.1 W 15 20 8 11 1016.1 - 0.0
30/09:00am 13.4 12.4 12.3 93 0.6 NW 9 13 5 7 1015.9 1015.9 0.0
30/08:30am 12.1 11.0 11.8 98 0.2 NNW 9 11 5 6 1016.0 - 0.0
30/08:00am 11.1 9.7 10.9 99 0.1 NNW 9 13 5 7 1015.6 - 0.0
30/07:30am 10.3 9.1 10.3 100 0.0 NNE 7 9 4 5 1015.3 - 0.0
30/07:00am 9.8 9.4 9.8 100 0.0 N 2 6 1 3 1015.5 - 0.0
30/06:30am 9.6 8.2 9.6 100 0.0 N 7 11 4 6 1014.8 - 0.0
30/06:00am 9.1 8.9 9.1 100 0.0 CALM 0 7 0 4 1014.9 1014.9 0.0
30/05:30am 8.5 7.4 8.4 99 0.0 NNW 4 7 2 4 1014.8 - 0.0
30/05:00am 9.3 8.0 9.3 100 0.0 N 6 9 3 5 1014.4 - 0.0
30/04:30am 9.2 7.7 9.2 100 0.0 NNW 7 11 4 6 1014.9 - 0.0
30/04:00am 9.1 7.8 9.1 100 0.0 W 6 9 3 5 1015.6 - 0.0
30/03:30am 8.6 8.3 8.5 99 0.0 CALM 0 0 0 0 1015.2 - 0.0
30/03:00am 7.8 6.1 7.7 99 0.0 W 6 7 3 4 1015.1 1015.1 0.0
30/02:30am 6.6 5.8 6.5 99 0.0 CALM 0 0 0 0 1015.0 - 0.0
30/02:00am 6.9 6.2 6.8 99 0.0 CALM 0 0 0 0 1015.3 - 0.0
30/01:30am 5.5 4.5 5.4 99 0.0 CALM 0 0 0 0 1015.4 - 0.0
30/01:00am 7.2 6.5 7.1 99 0.0 CALM 0 0 0 0 1015.7 - 0.0
30/12:30am 6.4 5.6 6.3 99 0.0 CALM 0 6 0 3 1016.1 - 0.0
30/12:00am 8.4 8.0 8.3 99 0.0 CALM 0 0 0 0 1016.4 1016.4 0.0
 
Date/Time
EDT
Temp
°C
App
Temp
°C
Dew
Point
Rel
Hum
%
Delta-T
°C
Wind Press
QNH
hPa
Press
MSL
hPa
Rain
since 9 am
mm
Dir
 
Spd
km/h
Gust
km/h
Spd
kts
Gust
kts
29/11:30pm 8.7 8.0 8.4 98 0.1 SW 2 6 1 3 1016.6 - 0.0
29/11:00pm 10.2 8.9 9.9 98 0.2 WSW 7 7 4 4 1016.8 - 0.0
29/10:30pm 10.6 9.4 10.3 98 0.2 WSW 7 9 4 5 1016.9 - 0.0
29/10:00pm 11.1 9.3 10.8 98 0.2 WSW 11 13 6 7 1016.8 - 0.0
29/09:30pm 11.8 9.7 11.0 95 0.4 WSW 13 19 7 10 1016.8 - 0.0
29/09:00pm 12.6 9.6 10.5 87 1.1 WSW 17 24 9 13 1016.7 1016.7 0.0
29/08:30pm 13.8 11.1 10.4 80 1.8 WSW 15 24 8 13 1016.7 - 0.0
29/08:00pm 14.3 11.2 10.3 77 2.1 WSW 17 26 9 14 1016.8 - 0.0
29/07:30pm 14.7 11.6 10.3 75 2.3 WSW 17 24 9 13 1016.5 - 0.0
29/07:00pm 15.3 11.7 10.5 73 2.5 WSW 20 30 11 16 1016.3 - 0.0
29/06:30pm 17.4 13.6 11.2 67 3.4 W 22 33 12 18 1015.9 - 0.0
29/06:00pm 17.1 12.4 10.5 65 3.5 W 26 35 14 19 1016.0 1016.0 0.0
29/05:30pm 17.9 14.6 10.8 63 3.8 W 19 30 10 16 1015.6 - 0.0
29/05:00pm 19.3 15.0 10.6 57 4.7 WSW 24 33 13 18 1015.5 - 0.0
29/04:30pm 19.2 15.4 9.9 55 5.0 W 20 32 11 17 1015.5 - 0.0
29/04:00pm 19.2 16.4 9.9 55 5.0 WNW 15 26 8 14 1015.5 - 0.0
29/03:30pm 18.7 15.3 10.5 59 4.4 W 19 26 10 14 1015.9 - 0.0
29/03:00pm 19.4 16.5 12.2 63 4.0 WSW 19 28 10 15 1016.3 1016.3 0.0
29/02:30pm 18.3 15.4 10.9 62 4.0 WNW 17 26 9 14 1016.5 - 0.0
29/02:00pm 17.1 13.4 10.0 63 3.8 WNW 20 32 11 17 1016.8 - 0.0
29/01:30pm 16.7 13.2 10.1 65 3.5 WNW 19 28 10 15 1017.1 - 0.0
29/01:00pm 16.6 13.2 10.5 67 3.3 WNW 19 30 10 16 1017.4 - 0.0
29/12:30pm 15.3 11.6 10.1 71 2.7 WNW 20 28 11 15 1017.8 - 0.0
29/12:00pm 15.5 12.2 10.9 74 2.5 NW 19 28 10 15 1018.1 1018.1 0.0
29/11:30am 15.0 11.7 11.0 77 2.1 WNW 19 24 10 13 1018.4 - 0.0
29/11:00am 14.7 11.3 10.5 76 2.2 W 19 28 10 15 1018.5 - 0.0
29/10:30am 14.6 11.3 9.6 72 2.6 NW 17 26 9 14 1018.6 - 0.0
29/10:00am 13.9 10.8 10.3 79 1.9 NW 17 24 9 13 1018.6 - 0.0
29/09:30am 13.2 10.1 8.9 75 2.2 NW 15 22 8 12 1018.7 - 0.0
29/09:00am 12.4 10.3 11.0 91 0.7 WNW 13 19 7 10 1018.6 1018.6 1.0
29/08:30am 11.9 10.3 11.6 98 0.2 NNW 11 15 6 8 1018.5 - 1.0
29/08:00am 11.2 9.4 10.9 98 0.2 NNW 11 13 6 7 1018.6 - 1.0
29/07:30am 10.6 8.7 10.4 99 0.1 NW 11 15 6 8 1018.5 - 1.0
29/07:00am 10.3 9.0 10.1 99 0.1 WNW 7 9 4 5 1018.3 - 1.0
29/06:30am 10.1 8.4 9.9 99 0.1 NW 9 11 5 6 1018.2 - 1.0
29/06:00am 10.0 8.3 9.9 99 0.1 NW 9 11 5 6 1018.0 1018.0 1.0
29/05:30am 9.9 8.6 9.8 99 0.1 NW 7 9 4 5 1017.8 - 1.0
29/05:00am 9.7 8.3 9.6 99 0.1 WNW 7 9 4 5 1017.6 - 1.0
29/04:30am 8.9 7.5 8.8 99 0.0 WNW 6 7 3 4 1017.4 - 1.0
29/04:00am 9.8 8.1 9.7 99 0.1 NW 9 11 5 6 1017.5 - 1.0
29/03:30am 10.1 8.4 9.9 99 0.1 WNW 9 13 5 7 1017.7 - 1.0
29/03:00am 10.4 9.2 10.2 99 0.1 WNW 7 9 4 5 1017.7 1017.7 1.0
29/02:30am 10.4 9.2 10.2 99 0.1 WNW 7 9 4 5 1017.7 - 1.0
29/02:00am 10.3 9.0 10.1 99 0.1 W 7 11 4 6 1017.8 - 1.0
29/01:30am 10.6 9.1 10.4 99 0.1 WNW 9 11 5 6 1018.1 - 1.0
29/01:00am 10.3 9.0 10.1 99 0.1 WNW 7 9 4 5 1018.2 - 1.0
29/12:30am 9.9 8.6 9.8 99 0.1 WNW 7 13 4 7 1018.3 - 1.0
29/12:00am 8.8 7.2 8.7 99 0.0 NW 7 9 4 5 1018.4 1018.4 1.0
 
Date/Time
EDT
Temp
°C
App
Temp
°C
Dew
Point
Rel
Hum
%
Delta-T
°C
Wind Press
QNH
hPa
Press
MSL
hPa
Rain
since 9 am
mm
Dir
 
Spd
km/h
Gust
km/h
Spd
kts
Gust
kts
28/11:30pm 8.5 6.8 8.2 98 0.1 W 7 9 4 5 1018.4 - 1.0

Other Formats:

Comma delimited format used in spreadsheet applications
http://www.bom.gov.au/fwo/IDV60801/IDV60801.95825.axf

JavaScript Object Notation format (JSON) in row-major order
http://www.bom.gov.au/fwo/IDV60801/IDV60801.95825.json